sensor_id;sensor_type;location;lat;lon;timestamp;pressure;altitude;pressure_sealevel;temperature;humidity
19005;BME280;9635;52.078;8.648;2024-03-02T00:03:06;99170.69;;;6.61;76.21
19005;BME280;9635;52.078;8.648;2024-03-02T00:08:13;99169.25;;;6.57;76.51
19005;BME280;9635;52.078;8.648;2024-03-02T00:13:20;99167.81;;;6.53;76.50
19005;BME280;9635;52.078;8.648;2024-03-02T00:18:27;99169.44;;;6.45;76.88
19005;BME280;9635;52.078;8.648;2024-03-02T00:23:34;99173.59;;;6.37;77.19
19005;BME280;9635;52.078;8.648;2024-03-02T00:28:39;99165.00;;;6.34;77.83
19005;BME280;9635;52.078;8.648;2024-03-02T00:33:47;99166.78;;;6.33;78.02
19005;BME280;9635;52.078;8.648;2024-03-02T00:38:53;99163.75;;;6.38;78.24
19005;BME280;9635;52.078;8.648;2024-03-02T00:44:00;99147.13;;;6.46;77.92
19005;BME280;9635;52.078;8.648;2024-03-02T00:49:04;99149.41;;;6.50;77.87
19005;BME280;9635;52.078;8.648;2024-03-02T00:54:10;99136.19;;;6.49;77.57
19005;BME280;9635;52.078;8.648;2024-03-02T00:59:13;99138.00;;;6.48;77.62
19005;BME280;9635;52.078;8.648;2024-03-02T01:04:16;99137.19;;;6.48;77.45
19005;BME280;9635;52.078;8.648;2024-03-02T01:09:21;99130.91;;;6.37;77.83
19005;BME280;9635;52.078;8.648;2024-03-02T01:14:24;99130.91;;;6.37;77.76
19005;BME280;9635;52.078;8.648;2024-03-02T01:19:27;99122.31;;;6.34;77.66
19005;BME280;9635;52.078;8.648;2024-03-02T01:24:31;99126.47;;;6.27;78.25
19005;BME280;9635;52.078;8.648;2024-03-02T01:29:34;99141.63;;;6.26;78.03
19005;BME280;9635;52.078;8.648;2024-03-02T01:34:37;99141.25;;;6.31;77.89
19005;BME280;9635;52.078;8.648;2024-03-02T01:39:42;99145.38;;;6.24;78.00
19005;BME280;9635;52.078;8.648;2024-03-02T01:44:45;99135.34;;;6.16;78.38
19005;BME280;9635;52.078;8.648;2024-03-02T01:49:48;99131.88;;;6.04;79.47
19005;BME280;9635;52.078;8.648;2024-03-02T01:54:53;99112.84;;;5.98;79.54
19005;BME280;9635;52.078;8.648;2024-03-02T01:59:56;99119.22;;;5.85;80.16
19005;BME280;9635;52.078;8.648;2024-03-02T02:04:59;99116.69;;;5.72;80.48
19005;BME280;9635;52.078;8.648;2024-03-02T02:10:05;99107.75;;;5.62;81.78
19005;BME280;9635;52.078;8.648;2024-03-02T02:15:27;99109.44;;;5.63;82.07
19005;BME280;9635;52.078;8.648;2024-03-02T02:20:30;99104.47;;;5.70;82.49
19005;BME280;9635;52.078;8.648;2024-03-02T02:25:35;99095.66;;;5.58;83.53
19005;BME280;9635;52.078;8.648;2024-03-02T02:30:38;99089.13;;;5.62;83.44
19005;BME280;9635;52.078;8.648;2024-03-02T02:35:41;99078.56;;;5.61;83.84
19005;BME280;9635;52.078;8.648;2024-03-02T02:40:45;99075.31;;;5.57;83.77
19005;BME280;9635;52.078;8.648;2024-03-02T02:45:48;99073.03;;;5.53;85.07
19005;BME280;9635;52.078;8.648;2024-03-02T02:50:52;99054.16;;;5.44;85.31
19005;BME280;9635;52.078;8.648;2024-03-02T02:55:56;99047.16;;;5.43;85.51
19005;BME280;9635;52.078;8.648;2024-03-02T03:00:59;99038.19;;;5.33;86.86
19005;BME280;9635;52.078;8.648;2024-03-02T03:06:02;99032.59;;;5.47;86.29
19005;BME280;9635;52.078;8.648;2024-03-02T03:17:54;99027.97;;;5.61;85.65
19005;BME280;9635;52.078;8.648;2024-03-02T03:22:57;99035.47;;;5.56;86.13
19005;BME280;9635;52.078;8.648;2024-03-02T03:28:00;99036.44;;;5.66;85.73
19005;BME280;9635;52.078;8.648;2024-03-02T03:33:06;99034.75;;;5.54;86.54
19005;BME280;9635;52.078;8.648;2024-03-02T03:38:09;99035.63;;;5.54;86.59
19005;BME280;9635;52.078;8.648;2024-03-02T03:43:12;99023.28;;;5.42;88.06
19005;BME280;9635;52.078;8.648;2024-03-02T03:48:16;99027.75;;;5.53;87.50
19005;BME280;9635;52.078;8.648;2024-03-02T03:53:20;99041.06;;;5.53;87.33
19005;BME280;9635;52.078;8.648;2024-03-02T03:58:23;99047.38;;;5.52;87.37
19005;BME280;9635;52.078;8.648;2024-03-02T04:03:28;99046.88;;;5.46;87.81
19005;BME280;9635;52.078;8.648;2024-03-02T04:08:31;99043.84;;;5.40;87.92
19005;BME280;9635;52.078;8.648;2024-03-02T04:13:34;99049.81;;;5.43;87.93
19005;BME280;9635;52.078;8.648;2024-03-02T04:18:39;99048.59;;;5.36;88.22
19005;BME280;9635;52.078;8.648;2024-03-02T04:23:42;99048.13;;;5.31;88.89
19005;BME280;9635;52.078;8.648;2024-03-02T04:28:45;99056.47;;;5.26;88.98
19005;BME280;9635;52.078;8.648;2024-03-02T04:33:49;99060.25;;;5.24;89.11
19005;BME280;9635;52.078;8.648;2024-03-02T04:38:52;99055.28;;;5.19;89.17
19005;BME280;9635;52.078;8.648;2024-03-02T04:43:55;99055.41;;;5.06;90.00
19005;BME280;9635;52.078;8.648;2024-03-02T04:48:59;99057.94;;;5.08;91.04
19005;BME280;9635;52.078;8.648;2024-03-02T04:54:02;99064.72;;;5.12;90.64
19005;BME280;9635;52.078;8.648;2024-03-02T04:59:06;99061.09;;;5.13;90.78
19005;BME280;9635;52.078;8.648;2024-03-02T05:04:10;99067.28;;;5.02;91.57
19005;BME280;9635;52.078;8.648;2024-03-02T05:09:14;99069.78;;;5.15;91.59
19005;BME280;9635;52.078;8.648;2024-03-02T05:14:17;99079.09;;;5.21;91.04
19005;BME280;9635;52.078;8.648;2024-03-02T05:19:21;99089.75;;;5.21;90.70
19005;BME280;9635;52.078;8.648;2024-03-02T05:24:24;99087.56;;;5.15;90.69
19005;BME280;9635;52.078;8.648;2024-03-02T05:29:28;99096.53;;;5.14;90.28
19005;BME280;9635;52.078;8.648;2024-03-02T05:34:33;99090.47;;;5.12;90.55
19005;BME280;9635;52.078;8.648;2024-03-02T05:39:37;99094.22;;;5.09;90.81
19005;BME280;9635;52.078;8.648;2024-03-02T05:44:40;99098.97;;;5.05;90.95
19005;BME280;9635;52.078;8.648;2024-03-02T05:49:44;99099.22;;;5.02;90.98
19005;BME280;9635;52.078;8.648;2024-03-02T05:54:47;99102.53;;;4.93;90.17
19005;BME280;9635;52.078;8.648;2024-03-02T05:59:50;99094.19;;;4.75;90.45
19005;BME280;9635;52.078;8.648;2024-03-02T06:04:55;99103.59;;;4.68;92.25
19005;BME280;9635;52.078;8.648;2024-03-02T06:09:59;99104.09;;;4.73;93.26
19005;BME280;9635;52.078;8.648;2024-03-02T06:15:02;99099.50;;;4.75;93.47
19005;BME280;9635;52.078;8.648;2024-03-02T06:20:08;99108.69;;;4.82;94.29
19005;BME280;9635;52.078;8.648;2024-03-02T06:25:11;99110.75;;;4.90;93.57
19005;BME280;9635;52.078;8.648;2024-03-02T06:30:15;99116.34;;;4.98;93.47
19005;BME280;9635;52.078;8.648;2024-03-02T06:35:19;99123.66;;;5.08;93.11
19005;BME280;9635;52.078;8.648;2024-03-02T06:40:22;99135.63;;;5.13;92.68
19005;BME280;9635;52.078;8.648;2024-03-02T06:45:25;99129.56;;;5.22;92.14
19005;BME280;9635;52.078;8.648;2024-03-02T06:50:29;99140.81;;;5.37;91.54
19005;BME280;9635;52.078;8.648;2024-03-02T06:55:32;99143.25;;;5.52;90.78
19005;BME280;9635;52.078;8.648;2024-03-02T07:00:35;99150.25;;;5.64;90.02
19005;BME280;9635;52.078;8.648;2024-03-02T07:05:39;99151.00;;;5.55;89.84
19005;BME280;9635;52.078;8.648;2024-03-02T07:10:43;99150.38;;;5.51;90.63
19005;BME280;9635;52.078;8.648;2024-03-02T07:15:46;99146.38;;;5.45;91.53
19005;BME280;9635;52.078;8.648;2024-03-02T07:21:14;99146.88;;;5.50;91.37
19005;BME280;9635;52.078;8.648;2024-03-02T07:26:17;99152.31;;;5.60;90.65
19005;BME280;9635;52.078;8.648;2024-03-02T07:31:23;99161.22;;;6.04;91.02
19005;BME280;9635;52.078;8.648;2024-03-02T07:36:28;99160.03;;;6.29;87.43
19005;BME280;9635;52.078;8.648;2024-03-02T07:41:31;99162.66;;;6.40;85.98
19005;BME280;9635;52.078;8.648;2024-03-02T07:46:34;99166.25;;;6.72;84.61
19005;BME280;9635;52.078;8.648;2024-03-02T07:51:38;99174.66;;;6.99;82.66
19005;BME280;9635;52.078;8.648;2024-03-02T07:56:41;99171.84;;;7.22;80.73
19005;BME280;9635;52.078;8.648;2024-03-02T08:07:23;99169.34;;;7.61;78.59
19005;BME280;9635;52.078;8.648;2024-03-02T08:12:26;99181.81;;;7.91;78.35
19005;BME280;9635;52.078;8.648;2024-03-02T08:17:29;99175.31;;;8.63;76.36
19005;BME280;9635;52.078;8.648;2024-03-02T08:22:36;99173.84;;;9.08;72.90
19005;BME280;9635;52.078;8.648;2024-03-02T08:27:39;99168.66;;;9.81;70.10
19005;BME280;9635;52.078;8.648;2024-03-02T08:32:42;99173.25;;;10.44;65.13
19005;BME280;9635;52.078;8.648;2024-03-02T08:37:48;99175.31;;;10.32;62.83
19005;BME280;9635;52.078;8.648;2024-03-02T08:42:52;99178.22;;;10.38;61.98
19005;BME280;9635;52.078;8.648;2024-03-02T08:47:55;99198.72;;;10.75;61.19
19005;BME280;9635;52.078;8.648;2024-03-02T08:52:59;99197.84;;;10.93;60.21
19005;BME280;9635;52.078;8.648;2024-03-02T08:58:02;99189.16;;;10.99;59.18
19005;BME280;9635;52.078;8.648;2024-03-02T09:03:06;99179.94;;;11.45;58.92
19005;BME280;9635;52.078;8.648;2024-03-02T09:08:10;99174.09;;;11.92;56.36
19005;BME280;9635;52.078;8.648;2024-03-02T09:13:13;99183.66;;;11.87;56.13
19005;BME280;9635;52.078;8.648;2024-03-02T09:18:16;99196.06;;;11.71;55.65
19005;BME280;9635;52.078;8.648;2024-03-02T09:23:21;99178.84;;;11.99;55.74
19005;BME280;9635;52.078;8.648;2024-03-02T09:28:24;99183.22;;;12.83;53.62
19005;BME280;9635;52.078;8.648;2024-03-02T09:33:27;99181.88;;;12.63;53.00
19005;BME280;9635;52.078;8.648;2024-03-02T09:38:33;99170.44;;;12.77;52.07
19005;BME280;9635;52.078;8.648;2024-03-02T09:43:36;99173.94;;;12.53;52.39
19005;BME280;9635;52.078;8.648;2024-03-02T09:48:39;99160.47;;;12.61;51.63
19005;BME280;9635;52.078;8.648;2024-03-02T09:53:44;99169.91;;;12.57;52.56
19005;BME280;9635;52.078;8.648;2024-03-02T09:58:47;99168.06;;;12.98;51.39
19005;BME280;9635;52.078;8.648;2024-03-02T10:03:50;99178.03;;;13.06;51.76
19005;BME280;9635;52.078;8.648;2024-03-02T10:08:55;99183.78;;;13.75;49.07
19005;BME280;9635;52.078;8.648;2024-03-02T10:14:05;99180.75;;;13.78;48.58
19005;BME280;9635;52.078;8.648;2024-03-02T10:19:15;99179.44;;;14.45;46.85
19005;BME280;9635;52.078;8.648;2024-03-02T10:24:21;99182.94;;;13.83;48.56
19005;BME280;9635;52.078;8.648;2024-03-02T10:29:25;99183.84;;;13.59;48.40
19005;BME280;9635;52.078;8.648;2024-03-02T10:34:30;99186.03;;;14.03;48.80
19005;BME280;9635;52.078;8.648;2024-03-02T10:39:35;99183.63;;;14.16;48.13
19005;BME280;9635;52.078;8.648;2024-03-02T10:44:39;99184.84;;;14.91;46.37
19005;BME280;9635;52.078;8.648;2024-03-02T10:49:42;99186.72;;;14.90;46.07
19005;BME280;9635;52.078;8.648;2024-03-02T10:54:47;99183.06;;;15.21;45.29
19005;BME280;9635;52.078;8.648;2024-03-02T10:59:52;99173.50;;;15.48;44.79
19005;BME280;9635;52.078;8.648;2024-03-02T11:05:00;99173.78;;;15.68;44.00
19005;BME280;9635;52.078;8.648;2024-03-02T11:10:12;99167.56;;;17.82;42.26
19005;BME280;9635;52.078;8.648;2024-03-02T11:15:18;99166.63;;;18.58;39.42
19005;BME280;9635;52.078;8.648;2024-03-02T11:20:22;99152.34;;;18.36;38.62
19005;BME280;9635;52.078;8.648;2024-03-02T11:25:28;99161.19;;;18.51;40.17
19005;BME280;9635;52.078;8.648;2024-03-02T11:30:49;99157.28;;;19.34;37.81
19005;BME280;9635;52.078;8.648;2024-03-02T11:35:53;99166.69;;;18.91;38.74
19005;BME280;9635;52.078;8.648;2024-03-02T11:41:01;99155.38;;;18.00;39.45
19005;BME280;9635;52.078;8.648;2024-03-02T11:46:05;99163.41;;;18.34;39.82
19005;BME280;9635;52.078;8.648;2024-03-02T11:51:11;99169.84;;;19.21;37.47
19005;BME280;9635;52.078;8.648;2024-03-02T11:56:16;99167.94;;;19.49;37.39
19005;BME280;9635;52.078;8.648;2024-03-02T12:01:23;99153.50;;;18.88;38.63
19005;BME280;9635;52.078;8.648;2024-03-02T12:06:27;99159.53;;;18.64;38.70
19005;BME280;9635;52.078;8.648;2024-03-02T12:11:32;99153.09;;;18.91;37.93
19005;BME280;9635;52.078;8.648;2024-03-02T12:16:35;99148.47;;;19.58;37.72
19005;BME280;9635;52.078;8.648;2024-03-02T12:21:40;99151.19;;;19.38;37.25
19005;BME280;9635;52.078;8.648;2024-03-02T12:26:45;99139.31;;;19.06;37.85
19005;BME280;9635;52.078;8.648;2024-03-02T12:31:48;99138.22;;;18.80;38.62
19005;BME280;9635;52.078;8.648;2024-03-02T12:36:52;99133.50;;;18.28;38.95
19005;BME280;9635;52.078;8.648;2024-03-02T12:41:56;99134.41;;;18.55;38.83
19005;BME280;9635;52.078;8.648;2024-03-02T12:46:59;99126.22;;;17.80;39.85
19005;BME280;9635;52.078;8.648;2024-03-02T12:52:03;99135.25;;;17.53;40.31
19005;BME280;9635;52.078;8.648;2024-03-02T12:57:08;99118.63;;;18.17;39.37
19005;BME280;9635;52.078;8.648;2024-03-02T13:02:17;99122.59;;;18.08;39.97
19005;BME280;9635;52.078;8.648;2024-03-02T13:07:20;99109.59;;;19.89;36.93
19005;BME280;9635;52.078;8.648;2024-03-02T13:12:25;99111.53;;;20.59;35.40
19005;BME280;9635;52.078;8.648;2024-03-02T13:17:28;99113.78;;;20.37;35.82
19005;BME280;9635;52.078;8.648;2024-03-02T13:22:38;99116.72;;;21.61;34.02
19005;BME280;9635;52.078;8.648;2024-03-02T13:27:43;99112.00;;;20.81;34.07
19005;BME280;9635;52.078;8.648;2024-03-02T13:32:46;99101.94;;;21.68;34.27
19005;BME280;9635;52.078;8.648;2024-03-02T13:37:49;99089.41;;;21.24;34.18
19005;BME280;9635;52.078;8.648;2024-03-02T13:42:54;99091.03;;;20.82;34.55
19005;BME280;9635;52.078;8.648;2024-03-02T13:47:57;99081.13;;;18.87;36.53
19005;BME280;9635;52.078;8.648;2024-03-02T13:53:00;99078.34;;;16.53;39.87
19005;BME280;9635;52.078;8.648;2024-03-02T13:58:06;99079.22;;;18.88;37.98
19005;BME280;9635;52.078;8.648;2024-03-02T14:03:09;99084.72;;;18.00;38.12
19005;BME280;9635;52.078;8.648;2024-03-02T14:08:12;99083.41;;;17.96;37.87
19005;BME280;9635;52.078;8.648;2024-03-02T14:13:17;99083.91;;;15.73;41.64
19005;BME280;9635;52.078;8.648;2024-03-02T14:18:20;99074.59;;;17.80;38.94
19005;BME280;9635;52.078;8.648;2024-03-02T14:23:24;99053.38;;;19.43;36.95
19005;BME280;9635;52.078;8.648;2024-03-02T14:28:31;99059.53;;;18.66;37.41
19005;BME280;9635;52.078;8.648;2024-03-02T14:33:51;99072.94;;;18.94;37.24
19005;BME280;9635;52.078;8.648;2024-03-02T14:38:55;99055.59;;;18.82;37.49
19005;BME280;9635;52.078;8.648;2024-03-02T14:43:59;99051.16;;;18.27;37.70
19005;BME280;9635;52.078;8.648;2024-03-02T14:49:02;99046.38;;;17.75;38.50
19005;BME280;9635;52.078;8.648;2024-03-02T14:54:06;99041.31;;;17.65;38.78
19005;BME280;9635;52.078;8.648;2024-03-02T14:59:10;99043.44;;;17.69;38.84
19005;BME280;9635;52.078;8.648;2024-03-02T15:04:13;99043.34;;;17.50;39.33
19005;BME280;9635;52.078;8.648;2024-03-02T15:09:20;99034.69;;;17.26;39.74
19005;BME280;9635;52.078;8.648;2024-03-02T15:14:25;99047.34;;;17.19;39.88
19005;BME280;9635;52.078;8.648;2024-03-02T15:19:28;99043.66;;;17.27;39.81
19005;BME280;9635;52.078;8.648;2024-03-02T15:24:31;99045.78;;;17.31;39.96
19005;BME280;9635;52.078;8.648;2024-03-02T15:29:35;99043.38;;;16.37;41.14
19005;BME280;9635;52.078;8.648;2024-03-02T15:34:38;99050.13;;;16.05;42.22
19005;BME280;9635;52.078;8.648;2024-03-02T15:39:41;99043.50;;;16.07;42.36
19005;BME280;9635;52.078;8.648;2024-03-02T15:44:47;99048.66;;;15.07;43.26
19005;BME280;9635;52.078;8.648;2024-03-02T15:49:50;99051.16;;;14.41;44.70
19005;BME280;9635;52.078;8.648;2024-03-02T15:54:52;99046.63;;;14.33;44.59
19005;BME280;9635;52.078;8.648;2024-03-02T15:59:57;99038.03;;;14.06;45.77
19005;BME280;9635;52.078;8.648;2024-03-02T16:05:00;99047.69;;;14.01;46.02
19005;BME280;9635;52.078;8.648;2024-03-02T16:10:03;99041.53;;;13.61;46.94
19005;BME280;9635;52.078;8.648;2024-03-02T16:15:10;99050.59;;;13.68;46.63
19005;BME280;9635;52.078;8.648;2024-03-02T16:20:14;99053.94;;;13.39;47.53
19005;BME280;9635;52.078;8.648;2024-03-02T16:25:17;99052.25;;;13.38;47.56
19005;BME280;9635;52.078;8.648;2024-03-02T16:30:21;99059.50;;;13.37;48.43
19005;BME280;9635;52.078;8.648;2024-03-02T16:35:26;99062.06;;;13.22;49.23
19005;BME280;9635;52.078;8.648;2024-03-02T16:40:29;99061.56;;;13.11;49.20
19005;BME280;9635;52.078;8.648;2024-03-02T16:45:34;99063.75;;;13.15;49.07
19005;BME280;9635;52.078;8.648;2024-03-02T16:50:37;99066.84;;;12.88;49.36
19005;BME280;9635;52.078;8.648;2024-03-02T16:55:41;99072.59;;;12.68;49.73
19005;BME280;9635;52.078;8.648;2024-03-02T17:00:45;99070.75;;;12.52;50.19
19005;BME280;9635;52.078;8.648;2024-03-02T17:05:48;99080.34;;;12.38;50.44
19005;BME280;9635;52.078;8.648;2024-03-02T17:10:51;99084.06;;;12.29;50.89
19005;BME280;9635;52.078;8.648;2024-03-02T17:15:56;99092.22;;;12.11;51.04
19005;BME280;9635;52.078;8.648;2024-03-02T17:20:59;99097.13;;;12.08;51.26
19005;BME280;9635;52.078;8.648;2024-03-02T17:26:02;99095.75;;;12.04;51.34
19005;BME280;9635;52.078;8.648;2024-03-02T17:31:07;99099.59;;;12.01;51.14
19005;BME280;9635;52.078;8.648;2024-03-02T17:36:10;99089.34;;;11.97;51.18
19005;BME280;9635;52.078;8.648;2024-03-02T17:41:14;99096.94;;;11.93;51.08
19005;BME280;9635;52.078;8.648;2024-03-02T17:46:19;99095.91;;;11.94;50.90
19005;BME280;9635;52.078;8.648;2024-03-02T17:51:22;99099.59;;;11.85;51.33
19005;BME280;9635;52.078;8.648;2024-03-02T17:56:26;99104.25;;;11.75;51.70
19005;BME280;9635;52.078;8.648;2024-03-02T18:01:30;99112.09;;;11.60;52.34
19005;BME280;9635;52.078;8.648;2024-03-02T18:06:33;99111.72;;;11.46;52.85
19005;BME280;9635;52.078;8.648;2024-03-02T18:11:36;99105.25;;;11.31;53.30
19005;BME280;9635;52.078;8.648;2024-03-02T18:16:42;99109.38;;;11.17;54.00
19005;BME280;9635;52.078;8.648;2024-03-02T18:21:45;99113.66;;;11.10;54.20
19005;BME280;9635;52.078;8.648;2024-03-02T18:26:50;99116.28;;;11.02;54.42
19005;BME280;9635;52.078;8.648;2024-03-02T18:31:55;99102.19;;;11.00;54.72
19005;BME280;9635;52.078;8.648;2024-03-02T18:36:59;99106.13;;;10.88;55.19
19005;BME280;9635;52.078;8.648;2024-03-02T18:42:03;99109.78;;;10.78;55.54
19005;BME280;9635;52.078;8.648;2024-03-02T18:47:07;99112.22;;;10.72;55.75
19005;BME280;9635;52.078;8.648;2024-03-02T18:52:13;99105.25;;;10.61;56.23
19005;BME280;9635;52.078;8.648;2024-03-02T18:57:19;99110.56;;;10.53;56.58
19005;BME280;9635;52.078;8.648;2024-03-02T19:02:24;99113.22;;;10.53;57.04
19005;BME280;9635;52.078;8.648;2024-03-02T19:07:28;99115.91;;;10.53;56.88
19005;BME280;9635;52.078;8.648;2024-03-02T19:12:32;99114.63;;;10.39;57.56
19005;BME280;9635;52.078;8.648;2024-03-02T19:17:37;99115.34;;;10.23;58.17
19005;BME280;9635;52.078;8.648;2024-03-02T19:22:40;99111.50;;;10.08;59.08
19005;BME280;9635;52.078;8.648;2024-03-02T19:27:43;99112.25;;;10.00;59.72
19005;BME280;9635;52.078;8.648;2024-03-02T19:32:48;99109.94;;;9.87;60.61
19005;BME280;9635;52.078;8.648;2024-03-02T19:37:51;99109.16;;;9.95;60.57
19005;BME280;9635;52.078;8.648;2024-03-02T19:42:56;99103.56;;;9.88;60.87
19005;BME280;9635;52.078;8.648;2024-03-02T19:48:01;99113.56;;;9.96;61.01
19005;BME280;9635;52.078;8.648;2024-03-02T19:53:05;99114.84;;;9.92;61.34
19005;BME280;9635;52.078;8.648;2024-03-02T19:58:08;99114.53;;;9.95;61.44
19005;BME280;9635;52.078;8.648;2024-03-02T20:03:13;99117.13;;;9.87;61.97
19005;BME280;9635;52.078;8.648;2024-03-02T20:08:16;99119.25;;;9.83;62.45
19005;BME280;9635;52.078;8.648;2024-03-02T20:18:51;99118.94;;;9.59;64.23
19005;BME280;9635;52.078;8.648;2024-03-02T20:23:54;99118.91;;;9.68;64.13
19005;BME280;9635;52.078;8.648;2024-03-02T20:28:57;99107.53;;;9.57;64.71
19005;BME280;9635;52.078;8.648;2024-03-02T20:34:01;99109.66;;;9.53;65.26
19005;BME280;9635;52.078;8.648;2024-03-02T20:39:04;99097.16;;;9.44;65.73
19005;BME280;9635;52.078;8.648;2024-03-02T20:44:07;99102.31;;;9.55;65.37
19005;BME280;9635;52.078;8.648;2024-03-02T20:49:12;99089.47;;;9.31;66.60
19005;BME280;9635;52.078;8.648;2024-03-02T20:54:15;99087.88;;;9.38;66.48
19005;BME280;9635;52.078;8.648;2024-03-02T20:59:18;99085.19;;;9.38;66.69
19005;BME280;9635;52.078;8.648;2024-03-02T21:04:22;99082.25;;;9.32;67.09
19005;BME280;9635;52.078;8.648;2024-03-02T21:09:25;99074.91;;;9.34;67.12
19005;BME280;9635;52.078;8.648;2024-03-02T21:14:28;99084.63;;;9.35;67.18
19005;BME280;9635;52.078;8.648;2024-03-02T21:19:34;99071.41;;;9.33;66.88
19005;BME280;9635;52.078;8.648;2024-03-02T21:24:37;99078.88;;;9.29;67.08
19005;BME280;9635;52.078;8.648;2024-03-02T21:29:42;99073.88;;;9.17;67.21
19005;BME280;9635;52.078;8.648;2024-03-02T21:34:46;99067.91;;;9.23;66.90
19005;BME280;9635;52.078;8.648;2024-03-02T21:39:49;99069.59;;;9.24;66.81
19005;BME280;9635;52.078;8.648;2024-03-02T21:44:53;99068.50;;;9.17;66.94
19005;BME280;9635;52.078;8.648;2024-03-02T21:49:57;99061.84;;;9.21;66.77
19005;BME280;9635;52.078;8.648;2024-03-02T21:55:00;99063.19;;;9.07;66.93
19005;BME280;9635;52.078;8.648;2024-03-02T22:00:05;99056.75;;;9.00;67.36
19005;BME280;9635;52.078;8.648;2024-03-02T22:05:15;99055.84;;;9.09;66.87
19005;BME280;9635;52.078;8.648;2024-03-02T22:10:18;99049.53;;;9.00;67.17
19005;BME280;9635;52.078;8.648;2024-03-02T22:15:21;99050.78;;;9.06;66.86
19005;BME280;9635;52.078;8.648;2024-03-02T22:20:25;99042.75;;;9.06;66.78
19005;BME280;9635;52.078;8.648;2024-03-02T22:25:28;99032.16;;;9.04;66.97
19005;BME280;9635;52.078;8.648;2024-03-02T22:30:31;99032.56;;;9.10;66.66
19005;BME280;9635;52.078;8.648;2024-03-02T22:35:36;99026.97;;;9.03;66.82
19005;BME280;9635;52.078;8.648;2024-03-02T22:40:38;99026.81;;;9.04;66.58
19005;BME280;9635;52.078;8.648;2024-03-02T22:45:41;99023.34;;;8.94;67.03
19005;BME280;9635;52.078;8.648;2024-03-02T22:50:46;99034.84;;;9.04;66.75
19005;BME280;9635;52.078;8.648;2024-03-02T22:55:49;99039.38;;;9.04;66.69
19005;BME280;9635;52.078;8.648;2024-03-02T23:00:52;99032.34;;;9.03;66.79
19005;BME280;9635;52.078;8.648;2024-03-02T23:06:01;99039.81;;;8.99;66.98
19005;BME280;9635;52.078;8.648;2024-03-02T23:11:05;99029.97;;;9.00;66.75
19005;BME280;9635;52.078;8.648;2024-03-02T23:16:08;99034.44;;;8.99;66.91
19005;BME280;9635;52.078;8.648;2024-03-02T23:21:12;99038.53;;;9.03;66.64
19005;BME280;9635;52.078;8.648;2024-03-02T23:26:15;99030.94;;;8.99;66.78
19005;BME280;9635;52.078;8.648;2024-03-02T23:31:18;99023.34;;;8.94;67.23
19005;BME280;9635;52.078;8.648;2024-03-02T23:36:23;99017.00;;;8.95;67.22
19005;BME280;9635;52.078;8.648;2024-03-02T23:41:26;99019.38;;;8.98;66.92
19005;BME280;9635;52.078;8.648;2024-03-02T23:46:29;99022.06;;;8.98;66.93
19005;BME280;9635;52.078;8.648;2024-03-02T23:51:33;99024.78;;;8.89;67.38
19005;BME280;9635;52.078;8.648;2024-03-02T23:56:36;99019.88;;;8.84;67.74
